createdAt,value
2018-09-05T00:02:16.714Z,22.07
2018-09-05T00:04:44.921Z,20.87
2018-09-05T00:07:13.191Z,20.10
2018-09-05T00:09:41.427Z,19.17
2018-09-05T00:12:09.655Z,19.50
2018-09-05T00:14:37.908Z,20.77
2018-09-05T00:17:06.305Z,21.27
2018-09-05T00:19:34.520Z,20.27
2018-09-05T00:22:02.744Z,18.97
2018-09-05T00:24:31.227Z,20.20
2018-09-05T00:26:59.619Z,21.73
2018-09-05T00:29:27.852Z,20.47
2018-09-05T00:31:56.044Z,24.13
2018-09-05T00:34:24.588Z,19.40
2018-09-05T00:36:52.808Z,20.30
2018-09-05T00:39:21.016Z,19.00
2018-09-05T00:41:49.492Z,20.73
2018-09-05T00:44:17.718Z,18.30
2018-09-05T00:46:46.335Z,19.87
2018-09-05T00:49:14.553Z,20.03
2018-09-05T00:51:42.750Z,21.03
2018-09-05T00:54:11.133Z,21.53
2018-09-05T00:56:39.331Z,20.40
2018-09-05T00:59:07.769Z,27.57
2018-09-05T01:01:35.962Z,20.27
2018-09-05T01:04:04.168Z,20.47
2018-09-05T01:06:32.862Z,21.40
2018-09-05T01:09:01.059Z,18.47
2018-09-05T01:11:29.652Z,18.53
2018-09-05T01:13:58.340Z,19.10
2018-09-05T01:16:26.540Z,24.27
2018-09-05T01:18:54.920Z,23.30
2018-09-05T01:21:23.107Z,22.20
2018-09-05T01:23:51.324Z,22.10
2018-09-05T01:26:19.835Z,20.53
2018-09-05T01:29:19.516Z,18.87
2018-09-05T01:31:47.885Z,23.83
2018-09-05T01:34:16.087Z,23.80
2018-09-05T01:36:44.292Z,23.60
2018-09-05T01:39:12.632Z,19.87
2018-09-05T01:41:40.860Z,25.43
2018-09-05T01:44:09.375Z,22.13
2018-09-05T01:46:37.600Z,22.33
2018-09-05T01:49:06.040Z,22.37
2018-09-05T01:51:34.715Z,21.87
2018-09-05T01:54:03.151Z,23.67
2018-09-05T01:56:31.367Z,20.63
2018-09-05T01:58:59.881Z,24.47
2018-09-05T02:01:28.064Z,23.63
2018-09-05T02:03:56.595Z,27.10
2018-09-05T02:06:24.834Z,28.17
2018-09-05T02:08:53.024Z,26.30
2018-09-05T02:11:21.458Z,29.33
2018-09-05T02:13:50.276Z,26.93
2018-09-05T02:16:18.767Z,25.87
2018-09-05T02:18:47.213Z,29.70
2018-09-05T02:21:15.388Z,32.77
2018-09-05T02:23:43.812Z,30.23
2018-09-05T02:26:12.004Z,27.87
2018-09-05T02:28:40.204Z,29.20
2018-09-05T02:31:08.769Z,24.10
2018-09-05T02:33:36.967Z,29.73
2018-09-05T02:36:05.461Z,30.03
2018-09-05T02:38:33.641Z,26.93
2018-09-05T02:41:01.836Z,24.77
2018-09-05T02:43:35.800Z,25.70
2018-09-05T02:46:03.991Z,24.27
2018-09-05T02:48:32.438Z,26.07
2018-09-05T02:51:00.637Z,22.00
2018-09-05T02:53:29.012Z,22.20
2018-09-05T02:56:02.688Z,25.93
2018-09-05T02:58:32.489Z,24.57
2018-09-05T03:01:00.717Z,24.30
2018-09-05T03:03:29.172Z,24.50
2018-09-05T03:05:57.936Z,24.67
2018-09-05T03:08:26.164Z,25.80
2018-09-05T03:10:54.364Z,26.27
2018-09-05T03:13:23.253Z,27.37
2018-09-05T03:15:51.800Z,28.07
2018-09-05T03:18:20.091Z,26.80
2018-09-05T03:20:48.471Z,28.00
2018-09-05T03:23:16.668Z,26.20
2018-09-05T03:25:45.160Z,27.40
2018-09-05T03:28:13.364Z,26.53
2018-09-05T03:30:41.552Z,28.20
2018-09-05T03:33:10.081Z,24.30
2018-09-05T03:35:38.225Z,27.87
2018-09-05T03:38:06.421Z,28.07
2018-09-05T03:40:34.763Z,26.47
2018-09-05T03:43:02.964Z,31.87
2018-09-05T03:45:31.480Z,29.83
2018-09-05T03:47:59.673Z,29.13
2018-09-05T03:50:27.929Z,27.23
2018-09-05T03:52:56.523Z,27.03
2018-09-05T03:55:24.739Z,31.63
2018-09-05T03:57:53.002Z,24.77
2018-09-05T04:00:21.340Z,26.50
2018-09-05T04:02:49.532Z,25.37
2018-09-05T04:05:17.988Z,30.63
2018-09-05T04:07:46.264Z,30.77
2018-09-05T04:10:14.467Z,25.60
2018-09-05T04:12:43.056Z,25.80
2018-09-05T04:15:11.899Z,31.10
2018-09-05T04:17:40.760Z,27.77
2018-09-05T04:20:09.752Z,31.53
2018-09-05T04:22:37.944Z,27.70
2018-09-05T04:25:06.455Z,26.83
2018-09-05T04:27:34.676Z,33.23
2018-09-05T04:30:03.136Z,28.60
2018-09-05T04:32:31.323Z,31.17
2018-09-05T04:34:59.535Z,31.47
2018-09-05T04:37:28.200Z,25.17
2018-09-05T04:39:56.448Z,25.33
2018-09-05T04:42:24.655Z,25.60
2018-09-05T04:44:53.064Z,30.83
2018-09-05T04:47:21.276Z,27.97
2018-09-05T04:49:49.651Z,27.40
2018-09-05T04:52:17.844Z,26.30
2018-09-05T04:54:46.056Z,28.50
2018-09-05T04:57:14.509Z,30.10
2018-09-05T04:59:42.740Z,25.50
2018-09-05T05:02:10.936Z,31.37
2018-09-05T05:04:39.380Z,30.77
2018-09-05T05:07:07.582Z,26.83
2018-09-05T05:09:35.776Z,30.37
2018-09-05T05:12:04.241Z,29.50
2018-09-05T05:14:32.444Z,28.40
2018-09-05T05:17:00.668Z,25.33
2018-09-05T05:19:29.046Z,24.67
2018-09-05T05:21:57.382Z,26.47
2018-09-05T05:24:25.585Z,26.53
2018-09-05T05:26:53.801Z,31.37
2018-09-05T05:29:22.016Z,31.30
2018-09-05T05:31:50.232Z,32.07
2018-09-05T05:34:18.824Z,27.57
2018-09-05T05:36:47.068Z,27.67
2018-09-05T05:39:15.272Z,30.60
2018-09-05T05:41:43.500Z,27.47
2018-09-05T05:44:11.699Z,31.07
2018-09-05T05:46:39.964Z,31.33
2018-09-05T05:49:08.148Z,29.97
2018-09-05T05:51:36.360Z,26.00
2018-09-05T05:54:04.600Z,26.80
2018-09-05T05:56:32.888Z,26.60
2018-09-05T05:59:01.128Z,28.07
2018-09-05T06:01:29.382Z,27.80
2018-09-05T06:03:57.604Z,27.27
2018-09-05T06:06:26.006Z,26.43
2018-09-05T06:08:54.179Z,28.80
2018-09-05T06:11:22.405Z,27.43
2018-09-05T06:13:50.695Z,24.73
2018-09-05T06:16:18.946Z,25.60
2018-09-05T06:18:47.164Z,26.17
2018-09-05T06:21:15.404Z,26.70
2018-09-05T06:23:43.632Z,30.83
2018-09-05T06:26:11.849Z,30.70
2018-09-05T06:28:40.083Z,29.37
2018-09-05T06:31:08.434Z,26.23
2018-09-05T06:33:36.522Z,24.33
2018-09-05T06:36:04.768Z,26.70
2018-09-05T06:38:32.960Z,24.53
2018-09-05T06:41:01.187Z,23.23
2018-09-05T06:43:29.382Z,27.10
2018-09-05T06:45:57.610Z,22.30
2018-09-05T06:48:25.817Z,22.00
2018-09-05T06:50:59.576Z,26.30
2018-09-05T06:53:27.792Z,26.87
2018-09-05T06:55:56.029Z,30.77
2018-09-05T06:58:24.242Z,26.33
2018-09-05T07:00:52.463Z,29.83
2018-09-05T07:03:21.199Z,27.17
2018-09-05T07:05:49.482Z,26.60
2018-09-05T07:08:17.692Z,28.53
2018-09-05T07:10:46.024Z,31.77
2018-09-05T07:13:14.288Z,24.77
2018-09-05T07:15:42.548Z,27.70
2018-09-05T07:18:10.761Z,25.80
2018-09-05T07:20:38.980Z,29.83
2018-09-05T07:23:08.054Z,29.97
2018-09-05T07:25:36.276Z,26.37
2018-09-05T07:28:04.906Z,26.47
2018-09-05T07:30:33.211Z,29.17
2018-09-05T07:33:01.340Z,27.17
2018-09-05T07:35:30.236Z,28.77
2018-09-05T07:37:58.597Z,31.77
2018-09-05T07:40:26.841Z,26.77
2018-09-05T07:42:55.064Z,25.70
2018-09-05T07:45:23.292Z,27.70
2018-09-05T07:47:51.499Z,26.10
2018-09-05T07:50:19.737Z,27.97
2018-09-05T07:52:47.975Z,28.37
2018-09-05T07:55:16.236Z,26.57
2018-09-05T07:57:44.502Z,26.50
2018-09-05T08:00:12.725Z,27.97
2018-09-05T08:02:41.012Z,26.57
2018-09-05T08:05:09.212Z,25.90
2018-09-05T08:07:37.448Z,27.10
2018-09-05T08:10:05.712Z,26.83
2018-09-05T08:12:33.987Z,24.63
2018-09-05T08:15:02.248Z,28.27
2018-09-05T08:17:30.498Z,25.70
2018-09-05T08:19:58.871Z,26.47
2018-09-05T08:22:27.124Z,22.63
2018-09-05T08:24:55.362Z,23.33
2018-09-05T08:27:24.127Z,24.50
2018-09-05T08:29:53.572Z,21.07
2018-09-05T08:32:22.020Z,23.63
2018-09-05T08:34:50.452Z,23.40
2018-09-05T08:37:18.872Z,21.67
2018-09-05T08:39:46.904Z,20.63
2018-09-05T08:42:15.193Z,23.10
2018-09-05T08:44:43.541Z,28.60
2018-09-05T08:47:11.850Z,25.17
2018-09-05T08:49:40.066Z,28.03
2018-09-05T08:52:08.289Z,21.83
2018-09-05T08:54:36.538Z,22.30
2018-09-05T08:57:04.829Z,24.50
2018-09-05T08:59:33.118Z,24.03
2018-09-05T09:02:01.411Z,24.50
2018-09-05T09:04:29.668Z,25.27
2018-09-05T09:06:57.944Z,27.07
2018-09-05T09:09:26.152Z,26.37
2018-09-05T09:11:54.362Z,21.07
2018-09-05T09:14:22.605Z,22.03
2018-09-05T09:16:50.820Z,24.47
2018-09-05T09:19:19.064Z,26.50
2018-09-05T09:21:47.280Z,26.60
2018-09-05T09:24:15.531Z,23.93
2018-09-05T09:26:43.788Z,21.83
2018-09-05T09:29:12.012Z,22.73
2018-09-05T09:31:40.223Z,20.43
2018-09-05T09:34:08.508Z,23.20
2018-09-05T09:36:36.727Z,25.00
2018-09-05T09:39:07.593Z,24.97
2018-09-05T09:41:35.815Z,22.30
2018-09-05T09:44:04.011Z,19.57
2018-09-05T09:46:32.345Z,22.20
2018-09-05T09:49:00.555Z,18.90
2018-09-05T09:51:28.768Z,21.47
2018-09-05T09:53:56.969Z,22.93
2018-09-05T09:56:25.221Z,19.20
2018-09-05T09:58:53.423Z,21.07
2018-09-05T10:01:27.022Z,19.07
2018-09-05T10:04:00.725Z,18.27
2018-09-05T10:06:34.399Z,20.50
2018-09-05T10:09:07.880Z,19.83
2018-09-05T10:11:41.456Z,20.93
2018-09-05T10:14:15.974Z,18.20
2018-09-05T10:16:49.697Z,18.10
2018-09-05T10:19:17.935Z,16.70
2018-09-05T10:21:46.151Z,17.33
2018-09-05T10:24:14.388Z,19.20
2018-09-05T10:26:42.936Z,17.90
2018-09-05T10:29:11.132Z,17.70
2018-09-05T10:31:39.355Z,18.13
2018-09-05T10:34:08.063Z,19.63
2018-09-05T10:36:36.279Z,18.60
2018-09-05T10:39:07.485Z,21.30
2018-09-05T10:41:35.708Z,18.37
2018-09-05T10:44:03.924Z,17.30
2018-09-05T10:46:32.611Z,22.30
2018-09-05T10:49:00.821Z,20.33
2018-09-05T10:51:34.785Z,18.53
2018-09-05T10:54:02.996Z,19.47
2018-09-05T10:56:31.399Z,18.80
2018-09-05T10:58:59.782Z,20.20
2018-09-05T11:01:28.057Z,17.83
2018-09-05T11:03:56.465Z,18.57
2018-09-05T11:06:24.846Z,17.57
2018-09-05T11:08:53.050Z,20.37
2018-09-05T11:11:21.421Z,19.33
2018-09-05T11:13:49.640Z,17.03
2018-09-05T11:16:17.935Z,18.73
2018-09-05T11:18:46.371Z,19.10
2018-09-05T11:21:15.298Z,16.60
2018-09-05T11:23:43.476Z,15.80
2018-09-05T11:26:11.835Z,15.13
2018-09-05T11:28:40.072Z,15.03
2018-09-05T11:31:08.518Z,17.10
2018-09-05T11:33:36.864Z,17.77
2018-09-05T11:36:05.094Z,17.63
2018-09-05T11:38:33.907Z,18.03
2018-09-05T11:41:02.131Z,17.43
2018-09-05T11:43:30.340Z,17.70
2018-09-05T11:45:58.782Z,15.63
2018-09-05T11:48:26.985Z,18.37
2018-09-05T11:50:56.223Z,14.63
2018-09-05T11:53:24.677Z,16.03
2018-09-05T11:55:52.902Z,16.20
2018-09-05T11:58:21.860Z,13.03
2018-09-05T12:00:50.063Z,15.50
2018-09-05T12:03:18.349Z,12.87
2018-09-05T12:05:46.952Z,15.60
2018-09-05T12:08:15.151Z,13.83
2018-09-05T12:10:43.551Z,14.40
2018-09-05T12:13:11.957Z,16.30
2018-09-05T12:15:40.234Z,13.97
2018-09-05T12:18:08.822Z,14.37
2018-09-05T12:20:37.047Z,15.10
2018-09-05T12:23:06.066Z,14.43
2018-09-05T12:25:34.421Z,13.30
2018-09-05T12:28:02.648Z,13.80
2018-09-05T12:30:31.000Z,13.43
2018-09-05T12:32:59.191Z,13.20
2018-09-05T12:35:27.405Z,13.15
2018-09-05T12:37:55.920Z,15.63
2018-09-05T12:40:24.208Z,13.13
2018-09-05T12:42:52.404Z,12.75
2018-09-05T12:45:20.919Z,14.28
2018-09-05T12:47:49.140Z,14.00
2018-09-05T12:50:17.568Z,15.30
2018-09-05T12:52:45.760Z,12.53
2018-09-05T12:55:13.983Z,13.70
2018-09-05T12:57:42.572Z,12.60
2018-09-05T13:00:10.800Z,12.57
2018-09-05T13:02:39.047Z,12.00
2018-09-05T13:05:07.585Z,12.35
2018-09-05T13:07:35.835Z,12.25
2018-09-05T13:10:04.124Z,13.25
2018-09-05T13:12:32.657Z,11.78
2018-09-05T13:15:00.869Z,12.70
2018-09-05T13:17:29.095Z,13.03
2018-09-05T13:19:57.552Z,11.83
2018-09-05T13:22:25.872Z,11.48
2018-09-05T13:24:55.341Z,11.28
2018-09-05T13:27:23.559Z,12.73
2018-09-05T13:29:51.804Z,12.00
2018-09-05T13:32:20.220Z,11.57
2018-09-05T13:34:48.447Z,13.30
2018-09-05T13:37:16.664Z,12.88
2018-09-05T13:39:45.296Z,11.28
2018-09-05T13:42:13.572Z,12.78
2018-09-05T13:44:41.877Z,12.37
2018-09-05T13:47:10.454Z,12.00
2018-09-05T13:49:38.664Z,13.95
2018-09-05T13:52:06.980Z,11.15
2018-09-05T13:54:36.632Z,12.95
2018-09-05T13:57:04.916Z,13.20
2018-09-05T13:59:33.511Z,11.93
2018-09-05T14:02:01.742Z,11.22
2018-09-05T14:04:30.078Z,12.25
2018-09-05T14:06:58.315Z,12.80
2018-09-05T14:09:26.572Z,11.75
2018-09-05T14:11:54.864Z,10.80
2018-09-05T14:14:23.088Z,13.62
2018-09-05T14:16:51.332Z,9.85
2018-09-05T14:19:19.577Z,11.15
2018-09-05T14:21:47.819Z,11.88
2018-09-05T14:24:16.055Z,11.90
2018-09-05T14:26:44.324Z,13.15
2018-09-05T14:29:12.547Z,12.60
2018-09-05T14:31:40.763Z,10.93
2018-09-05T14:34:08.951Z,13.30
2018-09-05T14:36:37.195Z,10.88
2018-09-05T14:39:08.512Z,12.37
2018-09-05T14:41:36.760Z,11.93
2018-09-05T14:44:05.148Z,13.43
2018-09-05T14:46:33.567Z,11.53
2018-09-05T14:49:01.832Z,10.78
2018-09-05T14:51:30.100Z,10.85
2018-09-05T14:53:58.478Z,10.88
2018-09-05T14:56:26.671Z,11.88
2018-09-05T14:58:54.899Z,11.12
2018-09-05T15:01:23.156Z,11.30
2018-09-05T15:03:51.629Z,11.45
2018-09-05T15:06:19.931Z,10.18
2018-09-05T15:08:48.284Z,10.68
2018-09-05T15:11:16.556Z,10.72
2018-09-05T15:13:44.757Z,10.25
2018-09-05T15:16:13.334Z,10.45
2018-09-05T15:18:41.561Z,10.75
2018-09-05T15:21:09.896Z,11.18
2018-09-05T15:23:38.160Z,9.85
2018-09-05T15:26:06.392Z,11.40
2018-09-05T15:28:34.644Z,10.88
2018-09-05T15:31:02.912Z,10.78
2018-09-05T15:33:31.175Z,11.40
2018-09-05T15:35:59.497Z,10.43
2018-09-05T15:38:27.768Z,10.30
2018-09-05T15:40:56.086Z,9.90
2018-09-05T15:43:24.716Z,10.93
2018-09-05T15:45:52.948Z,11.28
2018-09-05T15:48:21.352Z,10.82
2018-09-05T15:50:49.613Z,12.80
2018-09-05T15:53:17.844Z,12.13
2018-09-05T15:55:46.153Z,10.70
2018-09-05T15:58:14.428Z,11.70
2018-09-05T16:00:42.736Z,14.47
2018-09-05T16:03:11.011Z,12.55
2018-09-05T16:05:39.212Z,10.15
2018-09-05T16:08:07.844Z,10.68
2018-09-05T16:10:36.136Z,13.25
2018-09-05T16:13:04.352Z,12.30
2018-09-05T16:15:32.768Z,11.05
2018-09-05T16:18:00.870Z,11.43
2018-09-05T16:20:29.135Z,11.73
2018-09-05T16:22:57.535Z,12.50
2018-09-05T16:25:25.770Z,13.03
2018-09-05T16:27:54.005Z,10.80
2018-09-05T16:30:22.275Z,11.22
2018-09-05T16:32:50.528Z,11.60
2018-09-05T16:35:18.740Z,9.97
2018-09-05T16:37:46.995Z,10.30
2018-09-05T16:40:15.204Z,11.47
2018-09-05T16:42:43.484Z,11.83
2018-09-05T16:45:11.735Z,11.23
2018-09-05T16:47:39.928Z,11.37
2018-09-05T16:50:08.182Z,17.80
2018-09-05T16:52:36.440Z,11.10
2018-09-05T16:55:04.683Z,11.10
2018-09-05T16:57:32.908Z,12.37
2018-09-05T17:00:01.136Z,10.83
2018-09-05T17:02:29.395Z,11.67
2018-09-05T17:04:57.629Z,11.37
2018-09-05T17:07:25.852Z,12.20
2018-09-05T17:09:54.223Z,11.57
2018-09-05T17:12:22.372Z,16.07
2018-09-05T17:14:50.623Z,13.67
2018-09-05T17:17:18.953Z,13.23
2018-09-05T17:19:47.132Z,15.80
2018-09-05T17:22:15.396Z,11.60
2018-09-05T17:24:43.628Z,13.90
2018-09-05T17:27:11.863Z,12.13
2018-09-05T17:29:40.115Z,12.90
2018-09-05T17:32:08.400Z,14.80
2018-09-05T17:34:37.656Z,14.97
2018-09-05T17:37:06.122Z,10.83
2018-09-05T17:39:34.419Z,14.30
2018-09-05T17:42:02.684Z,12.30
2018-09-05T17:44:30.916Z,14.07
2018-09-05T17:46:59.136Z,13.13
2018-09-05T17:49:27.343Z,13.57
2018-09-05T17:51:55.596Z,12.40
2018-09-05T17:54:23.824Z,11.53
2018-09-05T17:56:52.078Z,11.57
2018-09-05T17:59:20.284Z,13.27
2018-09-05T18:01:48.529Z,12.13
2018-09-05T18:04:16.744Z,15.37
2018-09-05T18:06:44.996Z,13.57
2018-09-05T18:09:13.228Z,15.17
2018-09-05T18:11:41.562Z,14.60
2018-09-05T18:14:09.842Z,12.17
2018-09-05T18:16:38.129Z,12.60
2018-09-05T18:19:06.327Z,11.60
2018-09-05T18:21:34.540Z,14.90
2018-09-05T18:24:02.808Z,14.43
2018-09-05T18:26:31.182Z,14.93
2018-09-05T18:28:59.408Z,13.33
2018-09-05T18:31:27.648Z,13.17
2018-09-05T18:33:55.903Z,14.43
2018-09-05T18:36:24.131Z,13.63
2018-09-05T18:38:52.383Z,13.80
2018-09-05T18:41:20.628Z,13.13
2018-09-05T18:43:48.839Z,15.40
2018-09-05T18:46:17.068Z,15.20
2018-09-05T18:48:45.304Z,14.67
2018-09-05T18:51:13.521Z,14.20
2018-09-05T18:53:41.785Z,15.97
2018-09-05T18:56:09.997Z,14.23
2018-09-05T18:58:38.218Z,14.63
2018-09-05T19:01:06.516Z,17.07
2018-09-05T19:03:34.732Z,15.93
2018-09-05T19:06:02.975Z,17.73
2018-09-05T19:08:31.264Z,15.50
2018-09-05T19:10:59.491Z,15.97
2018-09-05T19:13:27.700Z,15.70
2018-09-05T19:15:55.988Z,17.03
2018-09-05T19:18:24.228Z,16.43
2018-09-05T19:20:52.489Z,15.40
2018-09-05T19:23:20.704Z,13.97
2018-09-05T19:25:48.929Z,14.40
2018-09-05T19:28:17.177Z,15.03
2018-09-05T19:30:45.367Z,17.03
2018-09-05T19:33:13.615Z,17.60
2018-09-05T19:35:41.839Z,18.17
2018-09-05T19:38:10.027Z,16.73
2018-09-05T19:40:38.274Z,19.60
2018-09-05T19:43:06.601Z,17.47
2018-09-05T19:45:34.798Z,17.00
2018-09-05T19:48:03.116Z,16.23
2018-09-05T19:50:31.340Z,17.23
2018-09-05T19:52:59.538Z,19.80
2018-09-05T19:55:27.755Z,19.30
2018-09-05T19:57:55.979Z,18.27
2018-09-05T20:00:24.220Z,19.03
2018-09-05T20:02:52.445Z,18.57
2018-09-05T20:05:20.720Z,18.13
2018-09-05T20:07:48.916Z,17.87
2018-09-05T20:10:17.204Z,19.87
2018-09-05T20:12:45.460Z,17.57
2018-09-05T20:15:13.796Z,17.70
2018-09-05T20:17:42.021Z,17.63
2018-09-05T20:20:10.236Z,17.73
2018-09-05T20:22:38.504Z,17.87
2018-09-05T20:25:06.726Z,17.30
2018-09-05T20:27:34.952Z,18.33
2018-09-05T20:30:03.270Z,18.13
2018-09-05T20:32:31.661Z,20.07
2018-09-05T20:34:59.952Z,21.70
2018-09-05T20:37:28.148Z,20.17
2018-09-05T20:39:57.004Z,20.77
2018-09-05T20:42:25.267Z,19.43
2018-09-05T20:44:53.514Z,19.90
2018-09-05T20:47:21.804Z,18.90
2018-09-05T20:49:50.023Z,19.80
2018-09-05T20:52:18.356Z,17.83
2018-09-05T20:54:46.566Z,17.53
2018-09-05T20:57:14.776Z,18.73
2018-09-05T20:59:43.043Z,21.63
2018-09-05T21:02:11.328Z,22.23
2018-09-05T21:04:39.527Z,20.40
2018-09-05T21:07:07.805Z,19.93
2018-09-05T21:09:36.076Z,20.87
2018-09-05T21:12:04.336Z,21.60
2018-09-05T21:14:32.570Z,21.57
2018-09-05T21:17:00.819Z,23.27
2018-09-05T21:19:29.444Z,21.90
2018-09-05T21:21:57.746Z,22.83
2018-09-05T21:24:25.955Z,20.27
2018-09-05T21:26:54.225Z,22.27
2018-09-05T21:29:22.447Z,21.67
2018-09-05T21:31:50.694Z,20.23
2018-09-05T21:34:18.948Z,22.73
2018-09-05T21:36:47.196Z,23.47
2018-09-05T21:39:15.414Z,24.67
2018-09-05T21:41:43.663Z,22.87
2018-09-05T21:44:11.929Z,23.33
2018-09-05T21:46:40.157Z,22.53
2018-09-05T21:49:08.367Z,21.10
2018-09-05T21:51:36.615Z,22.43
2018-09-05T21:54:04.819Z,23.17
2018-09-05T21:56:33.140Z,22.10
2018-09-05T21:59:01.528Z,22.47
2018-09-05T22:01:29.743Z,24.40
2018-09-05T22:03:57.971Z,20.93
2018-09-05T22:06:26.211Z,24.07
2018-09-05T22:08:54.435Z,21.57
2018-09-05T22:11:27.022Z,25.13
2018-09-05T22:13:55.880Z,23.73
2018-09-05T22:16:24.100Z,21.50
2018-09-05T22:18:52.462Z,24.93
2018-09-05T22:21:20.769Z,21.23
2018-09-05T22:23:49.032Z,21.23
2018-09-05T22:26:17.360Z,20.53
2018-09-05T22:28:45.596Z,22.50
2018-09-05T22:31:13.877Z,21.60
2018-09-05T22:33:42.080Z,18.47
2018-09-05T22:36:10.319Z,22.63
2018-09-05T22:38:38.543Z,21.27
2018-09-05T22:41:06.765Z,20.80
2018-09-05T22:43:46.430Z,20.23
2018-09-05T22:46:26.133Z,20.47
2018-09-05T22:53:08.891Z,20.60
2018-09-05T22:56:56.880Z,20.10
2018-09-05T22:59:40.069Z,23.27
2018-09-05T23:04:27.252Z,20.57
2018-09-05T23:07:04.584Z,20.23
2018-09-05T23:09:44.173Z,24.73
2018-09-05T23:12:23.639Z,23.13
2018-09-05T23:15:04.096Z,23.67
2018-09-05T23:19:52.960Z,23.63
2018-09-05T23:22:21.188Z,24.23
2018-09-05T23:24:49.389Z,21.33
2018-09-05T23:27:17.609Z,22.63
2018-09-05T23:29:45.820Z,21.83
2018-09-05T23:32:14.029Z,25.70
2018-09-05T23:34:42.293Z,22.90
2018-09-05T23:37:10.534Z,24.00
2018-09-05T23:39:38.756Z,23.37
2018-09-05T23:42:06.968Z,23.50
2018-09-05T23:44:35.228Z,23.43
2018-09-05T23:47:03.456Z,27.07
2018-09-05T23:49:31.690Z,23.03
2018-09-05T23:51:59.956Z,22.40
2018-09-05T23:54:28.228Z,26.17
2018-09-05T23:56:56.448Z,23.80
2018-09-05T23:59:24.701Z,23.37
